ADDS TAF Board (Experimental) INFO

IDs: Format: Expanded Condensed

Updated at: 1137 UTC 02 Sep 2014

KSLC - Salt Lake City Intl, UT, US

Issued at 1120 UTC 02 Sep 2014
Time1053Z02/12Z02/13Z02/14Z02/15Z02/16Z02/17Z02/18Z02/19Z02/20Z02/21Z02/22Z02/23Z03/00Z
TypeOBSPRVLPRVLPRVLPRVLPRVLPRVLPRVLPRVLPRVLPRVLPRVLPRVLPRVL
VIS10>6>6>6>6>6>6>6>6>6>6>6>6>6
CIG----------------------------
CoverCLRSKCSKCSKCSKCSKCSKCSKCSKCSKCSKCSKCSKCSKC
FltCat--VFRVFRVFRVFRVFRVFRVFRVFRVFRVFRVFRVFRVFR
WX----------------------------
WDir140150150150150150150150150330330330330330
WSpd67777777788888
WGst----------------------------
R14/32
XWnd100000000-0-0-0-0-0
HWnd677777777-8-8-8-8-8
R16/34
XWnd333333333-3-3-3-3-3
HWnd566666666-7-7-7-7-7
R17/35
XWnd433333333-4-4-4-4-4
HWnd566666666-7-7-7-7-7
RHB/18
XWnd-4-3-3-3-3-3-3-3-344444
HWnd-5-6-6-6-6-6-6-6-677777
Raw TAF
KSLC 021120Z 0212/0318 15007KT P6SM SKC
  FM022000 33008KT P6SM SKC
  FM030300 16008KT P6SM SKC


Raw METAR
KSLC 021053Z 14006KT 10SM CLR 14/05 A3001 RMK AO2 SLP117 T01390050

TAF Board Legend

Hazard VFR MVFR IFR LIFR
Visibility (sm) >5 3≤X≤5 1≤X<3 <1
Ceiling (100 ft) >30 10≤X≤30 5≤X<10 <5
Wind Speed (kt) <10 10≤X<20 20≤X<30 ≥30
Wind Gust (kt) <15 15≤X<25 25≤X<35 ≥35
Weather No Wx Reported VCTS,-TS,-FZRA TS,FZRA +TS,+FZRA


Page loaded:  11:37 UTC  |   04:37 AM Pacific  |   05:37 AM Mountain  |   06:37 AM Central  |   07:37 AM Eastern

 

ADVISORIES

FORECASTS

FORECASTS

OBSERVATIONS

USER TOOLS

ABOUT US